Sunday, January 21, 2018, 3:34 PM EST
Back to Local

KASH, Nashua, Boire Field Airport

Location: Nashua, NH, United States Lat: 42.782
Local Time: 3:34 PM EST (20:34 GMT) Lon: -71.515
Time Zone: US/Eastern Elev: 200 ft

Show me the last for .
Show Coded

Time T Td Feel RH Dir Speed Gust Alt SLP Vis Weather Sky Remarks
2018-01-21 14:56 47 29 45 49 340° 5 - 30.10 30.14 10 CLR None
2018-01-21 13:56 47 30 44 51 330° 7 - 30.10 30.13 10 CLR None
2018-01-21 12:56 46 29 41 51 310° 10 - 30.11 30.14 10 CLR 6-hr Min Temp (1pm): 27.0°F
6-hr Max Temp (1pm): 46.0°F
2018-01-21 11:56 46 29 39 51 310° 10 18 30.12 30.15 10 CLR None
2018-01-21 10:56 44 31 40 59 320° 7 - 30.15 30.18 10 CLR None
2018-01-21 09:56 43 31 38 62 290° 8 - 30.14 30.18 10 CLR None
2018-01-21 08:56 37 31 32 78 310° 6 - 30.12 30.15 10 CLR None
2018-01-21 07:56 30 29 - 95 - Calm - 30.10 30.14 10 OVC038 None
2018-01-21 06:56 27 27 - 100 - Calm - 30.08 30.12 10 FEW038 24-hr Precip Total (7am): 0.14"
6-hr Min Temp (7am): 21.9°F
6-hr Max Temp (7am): 27.0°F
2018-01-21 05:56 27 26 - 96 - Calm - 30.06 30.10 10 CLR None
2018-01-21 04:56 24 23 - 95 - Calm - 30.03 30.07 10 CLR None
2018-01-21 03:56 23 22 - 95 - Calm - 30.00 30.03 10 CLR None
2018-01-21 02:56 24 24 - 100 - Calm - 30.00 30.03 10 CLR None
2018-01-21 01:56 23 22 - 95 - Calm - 29.97 30.00 10 CLR None
2018-01-21 00:56 23 22 - 95 - Calm - 29.94 29.98 10 CLR 6-hr Min Temp (1am): 23.0°F
6-hr Max Temp (1am): 43.0°F
2018-01-20 23:56 25 23 - 92 - Calm - 29.95 29.98 10 CLR None
2018-01-20 22:56 26 24 - 92 - Calm - 29.94 29.97 10 CLR 24-hr Min Temp (11pm): 19.0°F
24-hr Max Temp (11pm): 46.9°F
2018-01-20 21:56 29 27 25 92 320° 3 - 29.93 29.97 10 CLR None
2018-01-20 20:56 28 26 - 92 - Calm - 29.91 29.94 10 CLR None
2018-01-20 19:56 36 28 33 72 110° 3 - 29.89 29.92 10 CLR None
2018-01-20 18:56 42 28 37 57 280° 8 - 29.85 29.88 10 CLR 6-hr Min Temp (7pm): 42.1°F
6-hr Max Temp (7pm): 46.9°F
2018-01-20 17:56 44 27 40 50 260° 8 - 29.81 29.84 10 CLR None
2018-01-20 16:56 45 27 43 48 260° 5 - 29.77 29.80 10 CLR None
2018-01-20 15:56 46 27 43 47 Variable 6 - 29.73 29.76 10 CLR None

Support USWX by starting your Amazon purchase here.